sensor_id;sensor_type;location;lat;lon;timestamp;pressure;altitude;pressure_sealevel;temperature;humidity
8280;BME280;8335;42.646;23.380;2023-09-07T00:00:42;146461.84;;;19.82;96.41
8280;BME280;8335;42.646;23.380;2023-09-07T00:03:09;146458.09;;;19.80;96.45
8280;BME280;8335;42.646;23.380;2023-09-07T00:05:36;146448.06;;;19.76;96.58
8280;BME280;8335;42.646;23.380;2023-09-07T00:08:03;146438.09;;;19.72;96.44
8280;BME280;8335;42.646;23.380;2023-09-07T00:10:30;146430.53;;;19.69;95.81
8280;BME280;8335;42.646;23.380;2023-09-07T00:12:57;146426.81;;;19.67;95.14
8280;BME280;8335;42.646;23.380;2023-09-07T00:15:23;146441.84;;;19.73;95.26
8280;BME280;8335;42.646;23.380;2023-09-07T00:17:53;146433.03;;;19.70;94.91
8280;BME280;8335;42.646;23.380;2023-09-07T00:20:20;146439.34;;;19.72;94.66
8280;BME280;8335;42.646;23.380;2023-09-07T00:22:48;146433.03;;;19.70;95.24
8280;BME280;8335;42.646;23.380;2023-09-07T00:25:15;146425.56;;;19.67;94.96
8280;BME280;8335;42.646;23.380;2023-09-07T00:27:42;146424.31;;;19.66;95.51
8280;BME280;8335;42.646;23.380;2023-09-07T00:30:10;146394.19;;;19.54;97.36
8280;BME280;8335;42.646;23.380;2023-09-07T00:32:37;146337.88;;;19.31;98.85
8280;BME280;8335;42.646;23.380;2023-09-07T00:35:06;146355.41;;;19.38;99.81
8280;BME280;8335;42.646;23.380;2023-09-07T00:37:33;146227.78;;;18.86;99.87
8280;BME280;8335;42.646;23.380;2023-09-07T00:40:00;146332.91;;;19.29;100.00
8280;BME280;8335;42.646;23.380;2023-09-07T00:42:29;146335.41;;;19.30;99.70
8280;BME280;8335;42.646;23.380;2023-09-07T00:44:55;146332.91;;;19.29;100.00
8280;BME280;8335;42.646;23.380;2023-09-07T00:47:22;146332.91;;;19.29;100.00
8280;BME280;8335;42.646;23.380;2023-09-07T00:49:50;146345.38;;;19.34;99.77
8280;BME280;8335;42.646;23.380;2023-09-07T00:52:18;146351.66;;;19.37;99.23
8280;BME280;8335;42.646;23.380;2023-09-07T00:54:46;146342.88;;;19.33;99.08
8280;BME280;8335;42.646;23.380;2023-09-07T00:57:13;146344.13;;;19.34;99.43
8280;BME280;8335;42.646;23.380;2023-09-07T00:59:40;146344.13;;;19.34;99.32
8280;BME280;8335;42.646;23.380;2023-09-07T01:02:07;146354.16;;;19.38;99.46
8280;BME280;8335;42.646;23.380;2023-09-07T01:04:33;146351.66;;;19.37;99.50
8280;BME280;8335;42.646;23.380;2023-09-07T01:07:03;146345.38;;;19.34;100.00
8280;BME280;8335;42.646;23.380;2023-09-07T01:09:34;146314.09;;;19.21;100.00
8280;BME280;8335;42.646;23.380;2023-09-07T01:12:04;146330.34;;;19.28;100.00
8280;BME280;8335;42.646;23.380;2023-09-07T01:14:33;146332.91;;;19.29;100.00
8280;BME280;8335;42.646;23.380;2023-09-07T01:17:00;146324.13;;;19.25;100.00
8280;BME280;8335;42.646;23.380;2023-09-07T01:19:27;146330.34;;;19.28;100.00
8280;BME280;8335;42.646;23.380;2023-09-07T01:21:55;146317.88;;;19.23;100.00
8280;BME280;8335;42.646;23.380;2023-09-07T01:24:22;146335.41;;;19.30;100.00
8280;BME280;8335;42.646;23.380;2023-09-07T01:29:40;146339.13;;;19.32;100.00
8280;BME280;8335;42.646;23.380;2023-09-07T01:32:07;146346.63;;;19.35;99.85
8280;BME280;8335;42.646;23.380;2023-09-07T01:34:35;146337.88;;;19.31;99.44
8280;BME280;8335;42.646;23.380;2023-09-07T01:37:03;146364.16;;;19.42;98.88
8280;BME280;8335;42.646;23.380;2023-09-07T01:39:30;146369.19;;;19.44;99.43
8280;BME280;8335;42.646;23.380;2023-09-07T01:41:57;146366.66;;;19.43;98.82
8280;BME280;8335;42.646;23.380;2023-09-07T01:44:24;146370.44;;;19.44;99.17
8280;BME280;8335;42.646;23.380;2023-09-07T01:46:52;146369.19;;;19.44;99.52
8280;BME280;8335;42.646;23.380;2023-09-07T01:49:19;146350.41;;;19.36;100.00
8280;BME280;8335;42.646;23.380;2023-09-07T01:51:59;146331.59;;;19.29;100.00
8280;BME280;8335;42.646;23.380;2023-09-07T01:54:27;146339.13;;;19.32;100.00
8280;BME280;8335;42.646;23.380;2023-09-07T01:56:54;146332.91;;;19.29;100.00
8280;BME280;8335;42.646;23.380;2023-09-07T01:59:20;146297.84;;;19.15;100.00
8280;BME280;8335;42.646;23.380;2023-09-07T02:02:05;146316.63;;;19.22;100.00
8280;BME280;8335;42.646;23.380;2023-09-07T02:04:47;146307.84;;;19.19;100.00
8280;BME280;8335;42.646;23.380;2023-09-07T02:07:18;146304.09;;;19.17;100.00
8280;BME280;8335;42.646;23.380;2023-09-07T02:09:46;146296.56;;;19.14;100.00
8280;BME280;8335;42.646;23.380;2023-09-07T02:12:13;146291.56;;;19.12;100.00
8280;BME280;8335;42.646;23.380;2023-09-07T02:14:40;146272.81;;;19.05;100.00
8280;BME280;8335;42.646;23.380;2023-09-07T02:17:07;146272.81;;;19.05;100.00
8280;BME280;8335;42.646;23.380;2023-09-07T02:19:36;146282.84;;;19.09;100.00
8280;BME280;8335;42.646;23.380;2023-09-07T02:22:12;146272.81;;;19.05;100.00
8280;BME280;8335;42.646;23.380;2023-09-07T02:24:39;146294.06;;;19.13;100.00
8280;BME280;8335;42.646;23.380;2023-09-07T02:27:07;146295.31;;;19.14;100.00
8280;BME280;8335;42.646;23.380;2023-09-07T02:29:34;146290.31;;;19.12;100.00
8280;BME280;8335;42.646;23.380;2023-09-07T02:32:00;146276.53;;;19.06;100.00
8280;BME280;8335;42.646;23.380;2023-09-07T02:34:27;146280.34;;;19.08;100.00
8280;BME280;8335;42.646;23.380;2023-09-07T02:36:54;146280.34;;;19.08;100.00
8280;BME280;8335;42.646;23.380;2023-09-07T02:39:22;146270.31;;;19.04;100.00
8280;BME280;8335;42.646;23.380;2023-09-07T02:42:00;146271.56;;;19.04;100.00
8280;BME280;8335;42.646;23.380;2023-09-07T02:44:39;146275.31;;;19.06;100.00
8280;BME280;8335;42.646;23.380;2023-09-07T02:47:09;146277.78;;;19.07;100.00
8280;BME280;8335;42.646;23.380;2023-09-07T02:49:50;146277.78;;;19.07;100.00
8280;BME280;8335;42.646;23.380;2023-09-07T02:52:16;146279.03;;;19.07;100.00
8280;BME280;8335;42.646;23.380;2023-09-07T02:54:43;146279.03;;;19.07;100.00
8280;BME280;8335;42.646;23.380;2023-09-07T02:57:10;146271.56;;;19.04;100.00
8280;BME280;8335;42.646;23.380;2023-09-07T02:59:39;146264.06;;;19.01;100.00
8280;BME280;8335;42.646;23.380;2023-09-07T03:02:06;146256.53;;;18.98;100.00
8280;BME280;8335;42.646;23.380;2023-09-07T03:04:32;146252.78;;;18.96;100.00
8280;BME280;8335;42.646;23.380;2023-09-07T03:07:00;146255.28;;;18.97;100.00
8280;BME280;8335;42.646;23.380;2023-09-07T03:09:27;146260.28;;;19.00;100.00
8280;BME280;8335;42.646;23.380;2023-09-07T03:11:56;146262.81;;;19.01;100.00
8280;BME280;8335;42.646;23.380;2023-09-07T03:14:23;146236.53;;;18.90;100.00
8280;BME280;8335;42.646;23.380;2023-09-07T03:17:08;146244.00;;;18.93;100.00
8280;BME280;8335;42.646;23.380;2023-09-07T03:19:35;146244.00;;;18.93;100.00
8280;BME280;8335;42.646;23.380;2023-09-07T03:22:03;146250.28;;;18.95;100.00
8280;BME280;8335;42.646;23.380;2023-09-07T03:24:30;146259.03;;;18.99;100.00
8280;BME280;8335;42.646;23.380;2023-09-07T03:26:56;146251.53;;;18.96;100.00
8280;BME280;8335;42.646;23.380;2023-09-07T03:29:24;146245.31;;;18.93;100.00
8280;BME280;8335;42.646;23.380;2023-09-07T03:31:51;146166.41;;;18.61;100.00
8280;BME280;8335;42.646;23.380;2023-09-07T03:34:19;146232.78;;;18.88;100.00
8280;BME280;8335;42.646;23.380;2023-09-07T03:36:46;146199.00;;;18.75;100.00
8280;BME280;8335;42.646;23.380;2023-09-07T03:39:13;146247.81;;;18.94;100.00
8280;BME280;8335;42.646;23.380;2023-09-07T03:41:40;146250.28;;;18.95;100.00
8280;BME280;8335;42.646;23.380;2023-09-07T03:44:23;146232.78;;;18.88;100.00
8280;BME280;8335;42.646;23.380;2023-09-07T03:46:50;146222.75;;;18.84;100.00
8280;BME280;8335;42.646;23.380;2023-09-07T03:49:16;146215.25;;;18.81;100.00
8280;BME280;8335;42.646;23.380;2023-09-07T03:51:44;146220.25;;;18.83;100.00
8280;BME280;8335;42.646;23.380;2023-09-07T03:54:11;146205.25;;;18.77;100.00
8280;BME280;8335;42.646;23.380;2023-09-07T03:56:41;146216.50;;;18.82;100.00
8280;BME280;8335;42.646;23.380;2023-09-07T03:59:19;146210.28;;;18.79;100.00
8280;BME280;8335;42.646;23.380;2023-09-07T04:01:45;146200.25;;;18.75;100.00
8280;BME280;8335;42.646;23.380;2023-09-07T04:04:12;146212.78;;;18.80;100.00
8280;BME280;8335;42.646;23.380;2023-09-07T04:06:39;146208.97;;;18.79;100.00
8280;BME280;8335;42.646;23.380;2023-09-07T04:09:07;146204.00;;;18.77;100.00
8280;BME280;8335;42.646;23.380;2023-09-07T04:11:34;146196.50;;;18.74;100.00
8280;BME280;8335;42.646;23.380;2023-09-07T04:14:01;146205.25;;;18.77;100.00
8280;BME280;8335;42.646;23.380;2023-09-07T04:16:27;146210.28;;;18.79;100.00
8280;BME280;8335;42.646;23.380;2023-09-07T04:18:54;146219.00;;;18.83;100.00
8280;BME280;8335;42.646;23.380;2023-09-07T04:21:21;146211.53;;;18.80;100.00
8280;BME280;8335;42.646;23.380;2023-09-07T04:23:47;146200.25;;;18.75;100.00
8280;BME280;8335;42.646;23.380;2023-09-07T04:30:30;146181.47;;;18.67;100.00
8280;BME280;8335;42.646;23.380;2023-09-07T04:32:57;146168.91;;;18.62;100.00
8280;BME280;8335;42.646;23.380;2023-09-07T04:35:27;146167.66;;;18.62;100.00
8280;BME280;8335;42.646;23.380;2023-09-07T04:37:55;146167.66;;;18.62;100.00
8280;BME280;8335;42.646;23.380;2023-09-07T04:40:22;146072.63;;;18.23;100.00
8280;BME280;8335;42.646;23.380;2023-09-07T04:43:28;146147.66;;;18.54;100.00
8280;BME280;8335;42.646;23.380;2023-09-07T04:46:01;146152.66;;;18.56;100.00
8280;BME280;8335;42.646;23.380;2023-09-07T04:48:28;146155.16;;;18.57;100.00
8280;BME280;8335;42.646;23.380;2023-09-07T04:50:58;146143.91;;;18.52;100.00
8280;BME280;8335;42.646;23.380;2023-09-07T04:53:27;146146.41;;;18.53;100.00
8280;BME280;8335;42.646;23.380;2023-09-07T04:55:54;146138.88;;;18.50;100.00
8280;BME280;8335;42.646;23.380;2023-09-07T04:58:20;146148.91;;;18.54;100.00
8280;BME280;8335;42.646;23.380;2023-09-07T05:00:47;146163.94;;;18.60;100.00
8280;BME280;8335;42.646;23.380;2023-09-07T05:03:15;146176.44;;;18.65;100.00
8280;BME280;8335;42.646;23.380;2023-09-07T05:05:43;146186.47;;;18.69;100.00
8280;BME280;8335;42.646;23.380;2023-09-07T05:08:16;146182.72;;;18.68;100.00
8280;BME280;8335;42.646;23.380;2023-09-07T05:10:44;146180.25;;;18.67;100.00
8280;BME280;8335;42.646;23.380;2023-09-07T05:13:10;146179.00;;;18.66;100.00
8280;BME280;8335;42.646;23.380;2023-09-07T05:15:47;146165.16;;;18.61;100.00
8280;BME280;8335;42.646;23.380;2023-09-07T05:18:14;146175.19;;;18.65;100.00
8280;BME280;8335;42.646;23.380;2023-09-07T05:20:42;146199.00;;;18.75;100.00
8280;BME280;8335;42.646;23.380;2023-09-07T05:23:16;146188.97;;;18.70;100.00
8280;BME280;8335;42.646;23.380;2023-09-07T05:25:44;146190.22;;;18.71;100.00
8280;BME280;8335;42.646;23.380;2023-09-07T05:28:12;146217.75;;;18.82;100.00
8280;BME280;8335;42.646;23.380;2023-09-07T05:30:39;146231.53;;;18.88;100.00
8280;BME280;8335;42.646;23.380;2023-09-07T05:33:06;146250.28;;;18.95;100.00
8280;BME280;8335;42.646;23.380;2023-09-07T05:35:33;146247.81;;;18.94;100.00
8280;BME280;8335;42.646;23.380;2023-09-07T05:38:02;146264.06;;;19.01;100.00
8280;BME280;8335;42.646;23.380;2023-09-07T05:40:36;146291.56;;;19.12;100.00
8280;BME280;8335;42.646;23.380;2023-09-07T05:43:09;146315.38;;;19.22;100.00
8280;BME280;8335;42.646;23.380;2023-09-07T05:45:41;146335.41;;;19.30;100.00
8280;BME280;8335;42.646;23.380;2023-09-07T05:48:08;146379.16;;;19.48;100.00
8280;BME280;8335;42.646;23.380;2023-09-07T05:50:38;146410.53;;;19.61;100.00
8280;BME280;8335;42.646;23.380;2023-09-07T05:53:18;146436.78;;;19.71;100.00
8280;BME280;8335;42.646;23.380;2023-09-07T05:55:45;146464.34;;;19.83;100.00
8280;BME280;8335;42.646;23.380;2023-09-07T05:58:12;146518.19;;;20.04;100.00
8280;BME280;8335;42.646;23.380;2023-09-07T06:00:39;146617.19;;;20.45;100.00
8280;BME280;8335;42.646;23.380;2023-09-07T06:03:07;146766.25;;;21.05;97.19
8280;BME280;8335;42.646;23.380;2023-09-07T06:05:35;146871.56;;;21.48;93.38
8280;BME280;8335;42.646;23.380;2023-09-07T06:08:17;146911.66;;;21.64;90.95
8280;BME280;8335;42.646;23.380;2023-09-07T06:10:45;147020.81;;;22.09;90.21
8280;BME280;8335;42.646;23.380;2023-09-07T06:13:12;147148.72;;;22.61;86.50
8280;BME280;8335;42.646;23.380;2023-09-07T06:15:39;147363.34;;;23.48;82.77
8280;BME280;8335;42.646;23.380;2023-09-07T06:18:06;147618.34;;;24.51;77.97
8280;BME280;8335;42.646;23.380;2023-09-07T06:20:33;147940.13;;;25.82;70.76
8280;BME280;8335;42.646;23.380;2023-09-07T06:23:20;148108.63;;;26.50;67.03
8280;BME280;8335;42.646;23.380;2023-09-07T06:25:47;148179.06;;;26.78;64.06
8280;BME280;8335;42.646;23.380;2023-09-07T06:28:14;148151.41;;;26.67;63.32
8280;BME280;8335;42.646;23.380;2023-09-07T06:30:40;148257.13;;;27.10;60.58
8280;BME280;8335;42.646;23.380;2023-09-07T06:33:07;148375.44;;;27.58;59.63
8280;BME280;8335;42.646;23.380;2023-09-07T06:35:34;148518.97;;;28.16;56.56
8280;BME280;8335;42.646;23.380;2023-09-07T06:38:01;148488.75;;;28.04;55.46
8280;BME280;8335;42.646;23.380;2023-09-07T06:40:29;148419.50;;;27.76;57.08
8280;BME280;8335;42.646;23.380;2023-09-07T06:43:07;148411.97;;;27.73;57.14
8280;BME280;8335;42.646;23.380;2023-09-07T06:45:51;148414.50;;;27.74;57.90
8280;BME280;8335;42.646;23.380;2023-09-07T06:48:17;148497.53;;;28.07;56.19
8280;BME280;8335;42.646;23.380;2023-09-07T06:50:44;148651.22;;;28.69;54.44
8280;BME280;8335;42.646;23.380;2023-09-07T06:53:11;148870.53;;;29.58;51.83
8280;BME280;8335;42.646;23.380;2023-09-07T06:55:39;148888.19;;;29.65;50.60
8280;BME280;8335;42.646;23.380;2023-09-07T06:58:06;148893.22;;;29.67;50.33
8280;BME280;8335;42.646;23.380;2023-09-07T07:00:32;149035.69;;;30.25;48.21
8280;BME280;8335;42.646;23.380;2023-09-07T07:03:00;149002.91;;;30.11;46.77
8280;BME280;8335;42.646;23.380;2023-09-07T07:05:27;149006.66;;;30.13;46.03
8280;BME280;8335;42.646;23.380;2023-09-07T07:07:54;149040.72;;;30.27;46.51
8280;BME280;8335;42.646;23.380;2023-09-07T07:10:21;149084.88;;;30.45;46.69
8280;BME280;8335;42.646;23.380;2023-09-07T07:12:49;149068.47;;;30.38;46.63
8280;BME280;8335;42.646;23.380;2023-09-07T07:15:16;148873.06;;;29.59;48.46
8280;BME280;8335;42.646;23.380;2023-09-07T07:17:43;148851.59;;;29.50;49.18
8280;BME280;8335;42.646;23.380;2023-09-07T07:20:10;148686.47;;;28.84;50.73
8280;BME280;8335;42.646;23.380;2023-09-07T07:22:37;148643.69;;;28.66;51.84
8280;BME280;8335;42.646;23.380;2023-09-07T07:25:04;148573.16;;;28.38;52.50
8280;BME280;8335;42.646;23.380;2023-09-07T07:27:31;148558.03;;;28.32;53.02
8280;BME280;8335;42.646;23.380;2023-09-07T07:30:00;148506.38;;;28.11;51.50
8280;BME280;8335;42.646;23.380;2023-09-07T07:32:28;148447.22;;;27.87;51.75
8280;BME280;8335;42.646;23.380;2023-09-07T07:34:54;148430.84;;;27.80;52.49
8280;BME280;8335;42.646;23.380;2023-09-07T07:37:22;148405.66;;;27.70;52.54
8280;BME280;8335;42.646;23.380;2023-09-07T07:39:49;148401.88;;;27.68;53.17
8280;BME280;8335;42.646;23.380;2023-09-07T07:42:16;148372.88;;;27.57;53.82
8280;BME280;8335;42.646;23.380;2023-09-07T07:44:44;148331.38;;;27.40;53.37
8280;BME280;8335;42.646;23.380;2023-09-07T07:47:12;148258.38;;;27.10;53.97
8280;BME280;8335;42.646;23.380;2023-09-07T07:49:39;148201.72;;;26.87;54.49
8280;BME280;8335;42.646;23.380;2023-09-07T07:52:05;148092.28;;;26.43;56.23
8280;BME280;8335;42.646;23.380;2023-09-07T07:54:33;148016.78;;;26.13;57.03
8280;BME280;8335;42.646;23.380;2023-09-07T07:57:00;148004.25;;;26.08;57.88
8280;BME280;8335;42.646;23.380;2023-09-07T07:59:27;148033.13;;;26.19;57.21
8280;BME280;8335;42.646;23.380;2023-09-07T08:01:54;148079.69;;;26.38;56.50
8280;BME280;8335;42.646;23.380;2023-09-07T08:04:22;147990.41;;;26.02;57.50
8280;BME280;8335;42.646;23.380;2023-09-07T08:06:49;147873.44;;;25.55;58.44
8280;BME280;8335;42.646;23.380;2023-09-07T08:09:16;147815.63;;;25.31;60.44
8280;BME280;8335;42.646;23.380;2023-09-07T08:11:43;147754.03;;;25.06;61.66
8280;BME280;8335;42.646;23.380;2023-09-07T08:14:10;147684.88;;;24.78;61.29
8280;BME280;8335;42.646;23.380;2023-09-07T08:16:37;147650.97;;;24.64;60.80
8280;BME280;8335;42.646;23.380;2023-09-07T08:19:04;147625.88;;;24.54;61.67
8280;BME280;8335;42.646;23.380;2023-09-07T08:21:32;147610.78;;;24.48;61.78
8280;BME280;8335;42.646;23.380;2023-09-07T08:23:59;147669.84;;;24.72;61.45
8280;BME280;8335;42.646;23.380;2023-09-07T08:26:26;147673.59;;;24.74;59.11
8280;BME280;8335;42.646;23.380;2023-09-07T08:28:52;147771.63;;;25.13;57.14
8280;BME280;8335;42.646;23.380;2023-09-07T08:31:19;147785.47;;;25.19;55.54
8280;BME280;8335;42.646;23.380;2023-09-07T08:33:48;147699.97;;;24.84;55.42
8280;BME280;8335;42.646;23.380;2023-09-07T08:36:16;147667.28;;;24.71;55.00
8280;BME280;8335;42.646;23.380;2023-09-07T08:38:44;147679.88;;;24.76;52.81
8280;BME280;8335;42.646;23.380;2023-09-07T08:41:11;147726.38;;;24.95;53.86
8280;BME280;8335;42.646;23.380;2023-09-07T08:43:45;147808.06;;;25.28;53.62
8280;BME280;8335;42.646;23.380;2023-09-07T08:46:14;147805.56;;;25.27;53.00
8280;BME280;8335;42.646;23.380;2023-09-07T08:48:42;147821.91;;;25.34;54.29
8280;BME280;8335;42.646;23.380;2023-09-07T08:51:09;147829.47;;;25.37;55.33
8280;BME280;8335;42.646;23.380;2023-09-07T08:53:38;147883.50;;;25.59;53.80
8280;BME280;8335;42.646;23.380;2023-09-07T08:56:07;147808.06;;;25.28;54.77
8280;BME280;8335;42.646;23.380;2023-09-07T08:58:35;147819.41;;;25.33;55.29
8280;BME280;8335;42.646;23.380;2023-09-07T09:01:02;147855.84;;;25.47;54.39
8280;BME280;8335;42.646;23.380;2023-09-07T09:03:29;147862.09;;;25.50;52.18
8280;BME280;8335;42.646;23.380;2023-09-07T09:05:56;147936.34;;;25.80;52.43
8280;BME280;8335;42.646;23.380;2023-09-07T09:08:23;148010.53;;;26.10;49.58
8280;BME280;8335;42.646;23.380;2023-09-07T09:10:58;148133.81;;;26.60;48.31
8280;BME280;8335;42.646;23.380;2023-09-07T09:13:30;148169.03;;;26.74;48.58
8280;BME280;8335;42.646;23.380;2023-09-07T09:15:59;148200.47;;;26.87;48.38
8280;BME280;8335;42.646;23.380;2023-09-07T09:18:26;148241.97;;;27.04;47.50
8280;BME280;8335;42.646;23.380;2023-09-07T09:20:54;148284.78;;;27.21;46.60
8280;BME280;8335;42.646;23.380;2023-09-07T09:23:21;148315.00;;;27.33;45.82
8280;BME280;8335;42.646;23.380;2023-09-07T09:25:48;148452.25;;;27.89;45.49
8280;BME280;8335;42.646;23.380;2023-09-07T09:28:15;148628.56;;;28.60;44.67
8280;BME280;8335;42.646;23.380;2023-09-07T09:30:43;148741.94;;;29.06;42.47
8280;BME280;8335;42.646;23.380;2023-09-07T09:33:10;148730.66;;;29.01;42.98
8280;BME280;8335;42.646;23.380;2023-09-07T09:35:37;148793.59;;;29.27;42.99
8280;BME280;8335;42.646;23.380;2023-09-07T09:38:04;148798.63;;;29.29;42.46
8280;BME280;8335;42.646;23.380;2023-09-07T09:40:31;148757.06;;;29.12;41.92
8280;BME280;8335;42.646;23.380;2023-09-07T09:43:01;148667.59;;;28.76;42.81
8280;BME280;8335;42.646;23.380;2023-09-07T09:45:28;148636.09;;;28.63;42.69
8280;BME280;8335;42.646;23.380;2023-09-07T09:47:57;148655.00;;;28.71;42.84
8280;BME280;8335;42.646;23.380;2023-09-07T09:50:26;148716.78;;;28.96;42.41
8280;BME280;8335;42.646;23.380;2023-09-07T09:52:53;148646.19;;;28.67;42.71
8280;BME280;8335;42.646;23.380;2023-09-07T09:55:20;148734.41;;;29.03;41.93
8280;BME280;8335;42.646;23.380;2023-09-07T09:57:48;148818.84;;;29.37;41.40
8280;BME280;8335;42.646;23.380;2023-09-07T10:00:16;148889.44;;;29.66;40.65
8280;BME280;8335;42.646;23.380;2023-09-07T10:02:58;148854.16;;;29.51;40.24
8280;BME280;8335;42.646;23.380;2023-09-07T10:08:22;148501.34;;;28.09;43.47
8280;BME280;8335;42.646;23.380;2023-09-07T10:10:52;148306.22;;;27.30;45.24
8280;BME280;8335;42.646;23.380;2023-09-07T10:13:29;148143.84;;;26.64;46.32
8280;BME280;8335;42.646;23.380;2023-09-07T10:16:00;148164.00;;;26.72;46.52
8280;BME280;8335;42.646;23.380;2023-09-07T10:18:34;148224.38;;;26.97;46.56
8280;BME280;8335;42.646;23.380;2023-09-07T10:21:02;148250.81;;;27.07;44.92
8280;BME280;8335;42.646;23.380;2023-09-07T10:23:36;148289.84;;;27.23;45.15
8280;BME280;8335;42.646;23.380;2023-09-07T10:26:03;148238.22;;;27.02;45.16
8280;BME280;8335;42.646;23.380;2023-09-07T10:28:30;148230.63;;;26.99;44.86
8280;BME280;8335;42.646;23.380;2023-09-07T10:31:12;148187.88;;;26.82;45.53
8280;BME280;8335;42.646;23.380;2023-09-07T10:33:40;148155.19;;;26.69;46.29
8280;BME280;8335;42.646;23.380;2023-09-07T10:36:07;148197.94;;;26.86;46.16
8280;BME280;8335;42.646;23.380;2023-09-07T10:38:35;148157.69;;;26.70;46.79
8280;BME280;8335;42.646;23.380;2023-09-07T10:41:03;148128.78;;;26.58;46.19
8280;BME280;8335;42.646;23.380;2023-09-07T10:43:31;148089.75;;;26.42;46.54
8280;BME280;8335;42.646;23.380;2023-09-07T10:45:59;148019.28;;;26.14;46.21
8280;BME280;8335;42.646;23.380;2023-09-07T10:48:29;148010.53;;;26.10;47.55
8280;BME280;8335;42.646;23.380;2023-09-07T10:50:57;147955.22;;;25.88;47.71
8280;BME280;8335;42.646;23.380;2023-09-07T10:53:25;147884.75;;;25.59;48.11
8280;BME280;8335;42.646;23.380;2023-09-07T10:55:54;147879.69;;;25.57;48.57
8280;BME280;8335;42.646;23.380;2023-09-07T10:58:29;147838.25;;;25.40;49.26
8280;BME280;8335;42.646;23.380;2023-09-07T11:00:56;147699.97;;;24.84;51.37
8280;BME280;8335;42.646;23.380;2023-09-07T11:03:27;147726.38;;;24.95;50.37
8280;BME280;8335;42.646;23.380;2023-09-07T11:05:58;147732.63;;;24.97;51.06
8280;BME280;8335;42.646;23.380;2023-09-07T11:08:27;147733.88;;;24.98;51.34
8280;BME280;8335;42.646;23.380;2023-09-07T11:10:55;147725.13;;;24.94;51.98
8280;BME280;8335;42.646;23.380;2023-09-07T11:13:23;147731.38;;;24.97;52.85
8280;BME280;8335;42.646;23.380;2023-09-07T11:15:53;147708.78;;;24.88;52.40
8280;BME280;8335;42.646;23.380;2023-09-07T11:18:20;147736.41;;;24.99;52.85
8280;BME280;8335;42.646;23.380;2023-09-07T11:20:48;147727.63;;;24.95;52.17
8280;BME280;8335;42.646;23.380;2023-09-07T11:23:17;147710.03;;;24.88;52.34
8280;BME280;8335;42.646;23.380;2023-09-07T11:28:45;147630.88;;;24.56;53.41
8280;BME280;8335;42.646;23.380;2023-09-07T11:31:12;147683.63;;;24.78;53.39
8280;BME280;8335;42.646;23.380;2023-09-07T11:33:41;147679.88;;;24.76;53.67
8280;BME280;8335;42.646;23.380;2023-09-07T11:36:07;147644.69;;;24.62;53.46
8280;BME280;8335;42.646;23.380;2023-09-07T11:38:42;147591.94;;;24.40;54.45
8280;BME280;8335;42.646;23.380;2023-09-07T11:41:10;147563.00;;;24.29;55.33
8280;BME280;8335;42.646;23.380;2023-09-07T11:43:37;147541.66;;;24.20;55.59
8280;BME280;8335;42.646;23.380;2023-09-07T11:46:05;147507.75;;;24.06;56.12
8280;BME280;8335;42.646;23.380;2023-09-07T11:48:32;147463.84;;;23.88;56.46
8280;BME280;8335;42.646;23.380;2023-09-07T11:51:00;147476.41;;;23.94;56.84
8280;BME280;8335;42.646;23.380;2023-09-07T11:53:34;147476.41;;;23.94;57.12
8280;BME280;8335;42.646;23.380;2023-09-07T11:56:03;147516.56;;;24.10;56.24
8280;BME280;8335;42.646;23.380;2023-09-07T11:58:29;147556.75;;;24.26;55.14
8280;BME280;8335;42.646;23.380;2023-09-07T12:00:56;147607.03;;;24.47;55.12
8280;BME280;8335;42.646;23.380;2023-09-07T12:03:23;147654.78;;;24.66;54.28
8280;BME280;8335;42.646;23.380;2023-09-07T12:05:50;147661.03;;;24.68;54.83
8280;BME280;8335;42.646;23.380;2023-09-07T12:08:17;147674.88;;;24.74;54.71
8280;BME280;8335;42.646;23.380;2023-09-07T12:10:43;147718.81;;;24.92;54.63
8280;BME280;8335;42.646;23.380;2023-09-07T12:13:11;147757.84;;;25.08;53.05
8280;BME280;8335;42.646;23.380;2023-09-07T12:15:38;147747.78;;;25.04;53.40
8280;BME280;8335;42.646;23.380;2023-09-07T12:18:05;147757.84;;;25.08;52.54
8280;BME280;8335;42.646;23.380;2023-09-07T12:20:47;147756.53;;;25.07;52.19
8280;BME280;8335;42.646;23.380;2023-09-07T12:23:14;147686.13;;;24.79;52.70
8280;BME280;8335;42.646;23.380;2023-09-07T12:25:41;147644.69;;;24.62;53.64
8280;BME280;8335;42.646;23.380;2023-09-07T12:28:07;147640.94;;;24.60;53.42
8280;BME280;8335;42.646;23.380;2023-09-07T12:30:36;147618.34;;;24.51;53.24
8280;BME280;8335;42.646;23.380;2023-09-07T12:33:02;147656.03;;;24.66;53.58
8280;BME280;8335;42.646;23.380;2023-09-07T12:35:32;147691.19;;;24.81;52.86
8280;BME280;8335;42.646;23.380;2023-09-07T12:38:00;147706.28;;;24.87;52.59
8280;BME280;8335;42.646;23.380;2023-09-07T12:40:26;147691.19;;;24.81;52.96
8280;BME280;8335;42.646;23.380;2023-09-07T12:42:53;147733.88;;;24.98;53.20
8280;BME280;8335;42.646;23.380;2023-09-07T12:45:20;147669.84;;;24.72;52.62
8280;BME280;8335;42.646;23.380;2023-09-07T12:47:48;147701.22;;;24.85;51.61
8280;BME280;8335;42.646;23.380;2023-09-07T12:50:15;147664.78;;;24.70;51.80
8280;BME280;8335;42.646;23.380;2023-09-07T12:52:41;147653.53;;;24.65;52.95
8280;BME280;8335;42.646;23.380;2023-09-07T12:55:08;147672.34;;;24.73;52.55
8280;BME280;8335;42.646;23.380;2023-09-07T12:57:35;147727.63;;;24.95;52.77
8280;BME280;8335;42.646;23.380;2023-09-07T13:00:03;147769.13;;;25.12;51.23
8280;BME280;8335;42.646;23.380;2023-09-07T13:02:30;147815.63;;;25.31;50.21
8280;BME280;8335;42.646;23.380;2023-09-07T13:04:58;147862.09;;;25.50;50.52
8280;BME280;8335;42.646;23.380;2023-09-07T13:07:26;147805.56;;;25.27;50.55
8280;BME280;8335;42.646;23.380;2023-09-07T13:09:57;147845.81;;;25.43;49.35
8280;BME280;8335;42.646;23.380;2023-09-07T13:12:27;147893.53;;;25.63;49.42
8280;BME280;8335;42.646;23.380;2023-09-07T13:14:54;147814.38;;;25.31;49.80
8280;BME280;8335;42.646;23.380;2023-09-07T13:17:20;147862.09;;;25.50;50.20